createdAt,value
2019-05-22T00:00:27.495Z,1.60
2019-05-22T00:02:57.864Z,1.62
2019-05-22T00:05:38.611Z,1.57
2019-05-22T00:08:09.370Z,2.10
2019-05-22T00:10:39.504Z,2.00
2019-05-22T00:13:10.447Z,1.80
2019-05-22T00:15:40.098Z,2.12
2019-05-22T00:18:10.291Z,2.12
2019-05-22T00:20:39.345Z,2.17
2019-05-22T00:23:10.056Z,2.20
2019-05-22T00:25:38.782Z,2.00
2019-05-22T00:28:08.229Z,1.90
2019-05-22T00:30:38.912Z,2.08
2019-05-22T00:33:09.883Z,1.85
2019-05-22T00:35:38.636Z,1.90
2019-05-22T00:38:09.511Z,2.00
2019-05-22T00:40:53.290Z,2.37
2019-05-22T00:43:30.386Z,2.20
2019-05-22T00:46:02.437Z,1.85
2019-05-22T00:48:34.350Z,1.80
2019-05-22T00:51:07.555Z,2.05
2019-05-22T00:53:53.999Z,2.00
2019-05-22T00:56:34.714Z,2.00
2019-05-22T00:59:07.520Z,2.05
2019-05-22T01:01:39.605Z,2.12
2019-05-22T01:04:10.086Z,2.30
2019-05-22T01:06:38.962Z,1.98
2019-05-22T01:09:10.322Z,1.98
2019-05-22T01:11:39.752Z,2.00
2019-05-22T01:14:09.652Z,1.80
2019-05-22T01:16:39.583Z,2.00
2019-05-22T01:19:09.553Z,2.30
2019-05-22T01:21:38.451Z,1.62
2019-05-22T01:24:07.899Z,1.65
2019-05-22T01:26:36.858Z,1.98
2019-05-22T01:29:07.427Z,1.87
2019-05-22T01:31:44.352Z,1.87
2019-05-22T01:34:15.641Z,1.70
2019-05-22T01:36:46.076Z,1.87
2019-05-22T01:39:28.031Z,1.60
2019-05-22T01:41:59.002Z,1.80
2019-05-22T01:44:28.605Z,1.75
2019-05-22T01:47:00.242Z,1.65
2019-05-22T01:49:30.995Z,1.50
2019-05-22T01:51:59.884Z,1.60
2019-05-22T01:54:30.381Z,1.30
2019-05-22T01:57:07.123Z,2.17
2019-05-22T01:59:37.044Z,2.00
2019-05-22T02:02:08.900Z,1.62
2019-05-22T02:04:38.664Z,1.50
2019-05-22T02:07:09.610Z,1.50
2019-05-22T02:09:40.683Z,1.55
2019-05-22T02:12:18.704Z,1.50
2019-05-22T02:14:49.882Z,1.70
2019-05-22T02:17:21.475Z,1.65
2019-05-22T02:19:50.814Z,1.60
2019-05-22T02:22:20.081Z,1.57
2019-05-22T02:24:50.355Z,1.80
2019-05-22T02:27:20.528Z,1.75
2019-05-22T02:29:49.624Z,1.72
2019-05-22T02:32:21.402Z,1.55
2019-05-22T02:34:50.727Z,1.75
2019-05-22T02:37:21.120Z,1.70
2019-05-22T02:39:50.513Z,1.57
2019-05-22T02:42:25.983Z,1.55
2019-05-22T02:44:55.605Z,1.42
2019-05-22T02:47:25.180Z,1.47
2019-05-22T02:49:56.040Z,1.50
2019-05-22T02:52:25.330Z,1.50
2019-05-22T02:54:55.600Z,1.57
2019-05-22T02:57:26.702Z,1.52
2019-05-22T02:59:56.616Z,1.80
2019-05-22T03:02:26.662Z,1.70
2019-05-22T03:04:59.379Z,1.70
2019-05-22T03:07:30.064Z,1.60
2019-05-22T03:10:01.298Z,2.02
2019-05-22T03:12:32.615Z,1.98
2019-05-22T03:15:02.355Z,1.95
2019-05-22T03:17:32.163Z,2.22
2019-05-22T03:20:04.636Z,2.00
2019-05-22T03:22:55.662Z,1.93
2019-05-22T03:25:28.040Z,2.17
2019-05-22T03:27:57.366Z,2.52
2019-05-22T03:30:30.341Z,2.00
2019-05-22T03:33:00.452Z,2.45
2019-05-22T03:35:30.963Z,2.00
2019-05-22T03:38:01.350Z,2.55
2019-05-22T03:40:31.924Z,2.20
2019-05-22T03:43:04.195Z,2.40
2019-05-22T03:45:32.917Z,2.10
2019-05-22T03:48:04.960Z,2.33
2019-05-22T03:50:33.594Z,2.22
2019-05-22T03:53:17.110Z,2.22
2019-05-22T03:55:48.497Z,2.80
2019-05-22T03:58:18.424Z,2.10
2019-05-22T04:00:49.740Z,2.30
2019-05-22T04:03:19.544Z,1.87
2019-05-22T04:05:48.770Z,2.20
2019-05-22T04:08:19.511Z,2.70
2019-05-22T04:10:57.279Z,2.45
2019-05-22T04:13:25.938Z,2.72
2019-05-22T04:15:55.503Z,2.58
2019-05-22T04:18:26.404Z,2.40
2019-05-22T04:20:57.485Z,2.67
2019-05-22T04:23:26.227Z,2.72
2019-05-22T04:25:56.690Z,3.87
2019-05-22T04:28:26.352Z,2.60
2019-05-22T04:30:54.919Z,2.50
2019-05-22T04:33:24.412Z,2.75
2019-05-22T04:35:53.772Z,2.62
2019-05-22T04:38:23.381Z,3.30
2019-05-22T04:40:54.419Z,2.80
2019-05-22T04:43:24.119Z,2.40
2019-05-22T04:45:54.920Z,3.10
2019-05-22T04:48:25.461Z,3.12
2019-05-22T04:50:54.798Z,3.05
2019-05-22T04:53:24.072Z,3.10
2019-05-22T04:55:53.304Z,3.12
2019-05-22T04:58:26.633Z,3.27
2019-05-22T05:03:23.434Z,3.55
2019-05-22T05:05:52.747Z,3.55
2019-05-22T05:08:21.757Z,3.98
2019-05-22T05:10:55.089Z,4.33
2019-05-22T05:13:23.990Z,4.00
2019-05-22T05:15:52.518Z,4.70
2019-05-22T05:18:21.402Z,4.53
2019-05-22T05:20:50.715Z,4.33
2019-05-22T05:23:19.285Z,4.75
2019-05-22T05:25:48.688Z,4.62
2019-05-22T05:28:17.713Z,4.78
2019-05-22T05:30:46.417Z,5.10
2019-05-22T05:33:15.503Z,4.90
2019-05-22T05:35:45.881Z,5.87
2019-05-22T05:38:16.017Z,5.22
2019-05-22T05:40:45.371Z,5.33
2019-05-22T05:43:16.227Z,5.08
2019-05-22T05:45:47.669Z,5.25
2019-05-22T05:48:19.199Z,5.37
2019-05-22T05:51:10.273Z,5.62
2019-05-22T05:54:00.087Z,4.72
2019-05-22T05:56:31.966Z,4.95
2019-05-22T05:59:03.317Z,4.72
2019-05-22T06:01:36.528Z,4.65
2019-05-22T06:04:05.238Z,4.67
2019-05-22T06:06:38.412Z,4.85
2019-05-22T06:09:10.682Z,5.30
2019-05-22T06:11:52.242Z,5.00
2019-05-22T06:14:32.627Z,4.70
2019-05-22T06:17:26.707Z,5.72
2019-05-22T06:20:00.455Z,5.28
2019-05-22T06:22:30.227Z,5.70
2019-05-22T06:25:02.746Z,5.70
2019-05-22T06:27:42.239Z,6.40
2019-05-22T06:30:15.711Z,6.72
2019-05-22T06:35:33.864Z,6.67
2019-05-22T06:38:25.584Z,7.22
2019-05-22T06:40:54.829Z,7.20
2019-05-22T06:43:27.872Z,8.40
2019-05-22T06:45:57.113Z,6.90
2019-05-22T06:48:25.678Z,6.25
2019-05-22T06:50:54.687Z,5.92
2019-05-22T06:53:23.328Z,5.50
2019-05-22T06:55:51.934Z,5.95
2019-05-22T06:58:20.861Z,4.92
2019-05-22T07:00:49.591Z,4.65
2019-05-22T07:03:18.873Z,4.33
2019-05-22T07:05:47.816Z,4.55
2019-05-22T07:08:17.123Z,5.22
2019-05-22T07:10:46.709Z,4.87
2019-05-22T07:13:16.968Z,5.05
2019-05-22T07:15:47.725Z,4.47
2019-05-22T07:18:17.926Z,4.90
2019-05-22T07:20:48.793Z,4.37
2019-05-22T07:23:21.427Z,4.42
2019-05-22T07:25:51.850Z,4.00
2019-05-22T07:28:20.708Z,4.37
2019-05-22T07:30:50.625Z,2.92
2019-05-22T07:33:19.714Z,3.55
2019-05-22T07:36:07.949Z,3.10
2019-05-22T07:38:20.156Z,2.80
2019-05-22T07:40:51.184Z,3.15
2019-05-22T07:43:22.131Z,3.67
2019-05-22T07:45:51.714Z,3.20
2019-05-22T07:48:21.946Z,2.60
2019-05-22T07:50:52.155Z,2.45
2019-05-22T07:53:21.173Z,3.22
2019-05-22T07:55:51.703Z,2.80
2019-05-22T07:58:20.677Z,3.10
2019-05-22T08:00:52.039Z,2.70
2019-05-22T08:03:21.564Z,2.98
2019-05-22T08:05:56.227Z,3.30
2019-05-22T08:08:25.919Z,3.65
2019-05-22T08:10:56.364Z,2.85
2019-05-22T08:13:26.680Z,3.90
2019-05-22T08:15:55.705Z,4.17
2019-05-22T08:18:26.161Z,3.52
2019-05-22T08:20:55.178Z,4.60
2019-05-22T08:23:25.451Z,4.17
2019-05-22T08:25:54.132Z,3.80
2019-05-22T08:28:23.739Z,4.05
2019-05-22T08:30:53.738Z,3.33
2019-05-22T08:33:23.483Z,4.47
2019-05-22T08:35:53.391Z,3.52
2019-05-22T08:38:25.621Z,4.35
2019-05-22T08:40:54.595Z,4.35
2019-05-22T08:43:24.403Z,3.40
2019-05-22T08:45:54.205Z,3.90
2019-05-22T08:48:23.940Z,4.00
2019-05-22T08:50:54.166Z,3.52
2019-05-22T08:53:24.368Z,3.70
2019-05-22T08:55:54.616Z,3.20
2019-05-22T08:58:23.152Z,3.90
2019-05-22T09:00:52.413Z,3.50
2019-05-22T09:03:21.998Z,3.17
2019-05-22T09:05:50.705Z,3.70
2019-05-22T09:08:19.583Z,4.85
2019-05-22T09:10:48.510Z,5.37
2019-05-22T09:13:17.135Z,4.78
2019-05-22T09:15:47.403Z,3.37
2019-05-22T09:18:17.101Z,3.25
2019-05-22T09:20:49.418Z,2.80
2019-05-22T09:23:17.500Z,3.15
2019-05-22T09:25:46.511Z,2.87
2019-05-22T09:28:15.558Z,2.50
2019-05-22T09:30:44.734Z,2.10
2019-05-22T09:33:14.770Z,2.35
2019-05-22T09:35:43.554Z,1.92
2019-05-22T09:38:12.121Z,2.20
2019-05-22T09:40:41.516Z,2.60
2019-05-22T09:43:10.190Z,2.27
2019-05-22T09:45:38.951Z,2.80
2019-05-22T09:48:09.753Z,2.30
2019-05-22T09:50:39.652Z,2.30
2019-05-22T09:53:09.188Z,2.33
2019-05-22T09:55:38.460Z,2.40
2019-05-22T09:58:07.901Z,2.17
2019-05-22T10:00:37.080Z,2.00
2019-05-22T10:03:07.012Z,2.27
2019-05-22T10:05:36.092Z,2.30
2019-05-22T10:08:05.653Z,2.27
2019-05-22T10:10:34.389Z,2.50
2019-05-22T10:13:03.718Z,2.08
2019-05-22T10:15:33.211Z,2.10
2019-05-22T10:18:01.747Z,1.92
2019-05-22T10:20:30.988Z,2.70
2019-05-22T10:23:14.703Z,2.33
2019-05-22T10:25:32.001Z,2.30
2019-05-22T10:28:00.738Z,2.00
2019-05-22T10:30:29.810Z,2.27
2019-05-22T10:32:59.121Z,2.70
2019-05-22T10:35:29.709Z,2.42
2019-05-22T10:37:58.247Z,2.85
2019-05-22T10:40:27.992Z,2.45
2019-05-22T10:42:57.573Z,2.12
2019-05-22T10:45:28.053Z,2.25
2019-05-22T10:47:57.127Z,2.20
2019-05-22T10:50:26.779Z,1.60
2019-05-22T10:52:55.894Z,1.35
2019-05-22T10:55:26.540Z,1.40
2019-05-22T10:57:55.879Z,1.65
2019-05-22T11:00:27.180Z,1.72
2019-05-22T11:02:56.465Z,1.75
2019-05-22T11:05:25.512Z,1.72
2019-05-22T11:07:54.204Z,1.30
2019-05-22T11:10:25.000Z,1.77
2019-05-22T11:12:54.662Z,1.65
2019-05-22T11:15:25.543Z,1.47
2019-05-22T11:17:56.005Z,1.50
2019-05-22T11:20:25.611Z,1.80
2019-05-22T11:22:54.590Z,1.90
2019-05-22T11:25:23.373Z,1.70
2019-05-22T11:27:54.478Z,1.60
2019-05-22T11:30:23.880Z,1.77
2019-05-22T11:32:53.806Z,1.87
2019-05-22T11:35:23.119Z,1.60
2019-05-22T11:37:51.711Z,2.17
2019-05-22T11:40:22.907Z,1.30
2019-05-22T11:42:53.213Z,1.20
2019-05-22T11:45:22.716Z,1.67
2019-05-22T11:47:52.390Z,1.92
2019-05-22T11:50:23.801Z,1.40
2019-05-22T11:52:52.822Z,1.47
2019-05-22T11:55:22.101Z,2.08
2019-05-22T11:57:51.779Z,2.20
2019-05-22T12:00:21.929Z,2.30
2019-05-22T12:02:51.508Z,2.30
2019-05-22T12:05:21.450Z,2.02
2019-05-22T12:07:51.126Z,1.95
2019-05-22T12:10:22.035Z,2.25
2019-05-22T12:12:53.670Z,1.80
2019-05-22T12:15:26.433Z,1.37
2019-05-22T12:17:55.620Z,2.87
2019-05-22T12:20:26.312Z,1.67
2019-05-22T12:22:57.053Z,1.42
2019-05-22T12:25:26.591Z,1.42
2019-05-22T12:27:55.948Z,1.27
2019-05-22T12:30:25.579Z,1.40
2019-05-22T12:32:55.494Z,0.93
2019-05-22T12:35:25.509Z,1.20
2019-05-22T12:37:54.705Z,1.22
2019-05-22T12:40:24.211Z,1.10
2019-05-22T12:42:53.130Z,1.57
2019-05-22T12:45:29.070Z,1.32
2019-05-22T12:47:59.302Z,1.95
2019-05-22T12:50:30.083Z,1.90
2019-05-22T12:53:01.221Z,1.20
2019-05-22T12:55:30.596Z,1.37
2019-05-22T12:58:00.408Z,1.85
2019-05-22T13:00:31.622Z,1.25
2019-05-22T13:03:01.875Z,1.52
2019-05-22T13:05:31.468Z,1.00
2019-05-22T13:08:01.258Z,1.57
2019-05-22T13:10:30.303Z,2.42
2019-05-22T13:12:59.327Z,2.67
2019-05-22T13:15:28.013Z,2.45
2019-05-22T13:17:58.407Z,2.67
2019-05-22T13:20:41.981Z,2.50
2019-05-22T13:23:03.390Z,2.45
2019-05-22T13:25:35.887Z,3.12
2019-05-22T13:28:07.722Z,2.70
2019-05-22T13:30:39.234Z,3.40
2019-05-22T13:33:11.483Z,2.20
2019-05-22T13:35:41.751Z,2.90
2019-05-22T13:38:13.062Z,2.90
2019-05-22T13:40:43.867Z,5.42
2019-05-22T13:43:12.532Z,2.80
2019-05-22T13:45:41.579Z,2.77
2019-05-22T13:48:11.761Z,3.02
2019-05-22T13:50:40.579Z,3.30
2019-05-22T13:53:11.218Z,2.72
2019-05-22T13:55:41.268Z,3.20
2019-05-22T13:58:11.752Z,2.52
2019-05-22T14:00:41.716Z,3.30
2019-05-22T14:03:11.242Z,4.00
2019-05-22T14:05:41.908Z,3.05
2019-05-22T14:08:11.656Z,3.25
2019-05-22T14:10:40.329Z,3.58
2019-05-22T14:13:09.500Z,5.03
2019-05-22T14:15:50.523Z,4.25
2019-05-22T14:18:08.746Z,4.37
2019-05-22T14:20:39.445Z,4.28
2019-05-22T14:23:08.150Z,4.20
2019-05-22T14:25:38.121Z,4.22
2019-05-22T14:28:08.840Z,3.60
2019-05-22T14:30:38.657Z,3.92
2019-05-22T14:33:07.264Z,3.85
2019-05-22T14:35:48.371Z,4.28
2019-05-22T14:38:09.935Z,4.60
2019-05-22T14:40:39.723Z,4.00
2019-05-22T14:43:08.761Z,4.05
2019-05-22T14:45:37.721Z,2.77
2019-05-22T14:48:06.753Z,3.05
2019-05-22T14:50:35.758Z,3.50
2019-05-22T14:53:04.775Z,4.08
2019-05-22T14:55:34.948Z,4.12
2019-05-22T14:58:06.111Z,4.25
2019-05-22T15:00:36.670Z,3.92
2019-05-22T15:03:06.652Z,4.22
2019-05-22T15:05:35.954Z,4.60
2019-05-22T15:08:06.390Z,3.92
2019-05-22T15:10:36.509Z,4.05
2019-05-22T15:13:05.894Z,4.30
2019-05-22T15:15:35.137Z,4.28
2019-05-22T15:18:04.797Z,3.75
2019-05-22T15:20:35.769Z,3.62
2019-05-22T15:23:06.185Z,3.85
2019-05-22T15:25:35.570Z,4.05
2019-05-22T15:28:04.535Z,3.95
2019-05-22T15:30:33.317Z,3.70
2019-05-22T15:33:02.033Z,4.03
2019-05-22T15:35:31.533Z,4.22
2019-05-22T15:38:00.754Z,4.17
2019-05-22T15:40:30.486Z,4.55
2019-05-22T15:42:59.740Z,5.05
2019-05-22T15:45:31.484Z,4.78
2019-05-22T15:48:06.163Z,3.85
2019-05-22T15:50:37.190Z,3.83
2019-05-22T15:53:12.357Z,3.50
2019-05-22T15:55:42.826Z,4.17
2019-05-22T15:58:15.418Z,3.77
2019-05-22T16:00:48.241Z,3.85
2019-05-22T16:03:22.629Z,3.45
2019-05-22T16:05:53.594Z,3.20
2019-05-22T16:08:22.978Z,3.17
2019-05-22T16:10:52.859Z,3.22
2019-05-22T16:13:24.850Z,3.52
2019-05-22T16:15:55.784Z,2.62
2019-05-22T16:18:32.952Z,2.17
2019-05-22T16:21:04.458Z,2.60
2019-05-22T16:23:37.498Z,2.50
2019-05-22T16:26:10.070Z,2.30
2019-05-22T16:28:42.218Z,2.70
2019-05-22T16:31:12.435Z,2.15
2019-05-22T16:33:43.384Z,2.40
2019-05-22T16:36:13.259Z,2.58
2019-05-22T16:38:44.173Z,2.15
2019-05-22T16:41:13.675Z,2.30
2019-05-22T16:43:49.487Z,2.33
2019-05-22T16:46:16.893Z,2.80
2019-05-22T16:48:48.669Z,2.90
2019-05-22T16:51:20.221Z,2.47
2019-05-22T16:53:54.885Z,2.85
2019-05-22T16:56:25.401Z,2.80
2019-05-22T16:58:56.854Z,2.77
2019-05-22T17:01:28.032Z,3.20
2019-05-22T17:03:59.966Z,2.67
2019-05-22T17:06:30.084Z,2.80
2019-05-22T17:09:01.572Z,2.60
2019-05-22T17:11:31.528Z,3.10
2019-05-22T17:14:03.148Z,2.87
2019-05-22T17:16:33.921Z,3.65
2019-05-22T17:19:17.560Z,3.15
2019-05-22T17:21:35.505Z,2.98
2019-05-22T17:24:06.353Z,3.33
2019-05-22T17:26:36.492Z,3.87
2019-05-22T17:29:06.109Z,4.00
2019-05-22T17:31:35.322Z,4.20
2019-05-22T17:34:04.976Z,4.42
2019-05-22T17:36:34.141Z,3.08
2019-05-22T17:39:03.655Z,3.65
2019-05-22T17:41:33.928Z,3.50
2019-05-22T17:44:03.750Z,3.67
2019-05-22T17:46:34.573Z,3.60
2019-05-22T17:49:04.181Z,4.15
2019-05-22T17:51:33.457Z,3.90
2019-05-22T17:54:02.842Z,4.45
2019-05-22T17:56:31.489Z,4.17
2019-05-22T17:59:00.053Z,4.80
2019-05-22T18:01:29.152Z,4.80
2019-05-22T18:03:58.433Z,4.92
2019-05-22T18:06:27.480Z,4.80
2019-05-22T18:08:57.008Z,4.35
2019-05-22T18:11:25.753Z,5.40
2019-05-22T18:13:57.286Z,4.62
2019-05-22T18:16:26.189Z,4.85
2019-05-22T18:18:56.021Z,3.30
2019-05-22T18:21:24.635Z,7.25
2019-05-22T18:23:53.579Z,7.75
2019-05-22T18:26:22.380Z,4.75
2019-05-22T18:28:51.276Z,4.50
2019-05-22T18:31:20.482Z,3.92
2019-05-22T18:33:49.245Z,3.80
2019-05-22T18:36:17.807Z,3.70
2019-05-22T18:38:46.420Z,4.33
2019-05-22T18:41:15.836Z,4.28
2019-05-22T18:43:44.833Z,4.58
2019-05-22T18:46:13.630Z,4.80
2019-05-22T18:48:42.477Z,5.17
2019-05-22T18:51:11.808Z,4.85
2019-05-22T18:53:40.784Z,5.55
2019-05-22T18:56:10.960Z,5.28
2019-05-22T18:58:40.116Z,6.87
2019-05-22T19:01:08.872Z,5.33
2019-05-22T19:03:38.251Z,5.30
2019-05-22T19:06:07.021Z,6.67
2019-05-22T19:08:35.687Z,5.35
2019-05-22T19:11:04.322Z,6.42
2019-05-22T19:13:32.945Z,6.30
2019-05-22T19:16:01.565Z,6.17
2019-05-22T19:18:30.456Z,6.50
2019-05-22T19:20:59.401Z,6.10
2019-05-22T19:23:28.559Z,6.00
2019-05-22T19:25:57.299Z,6.75
2019-05-22T19:28:42.353Z,6.97
2019-05-22T19:31:00.020Z,6.22
2019-05-22T19:33:29.052Z,6.70
2019-05-22T19:35:59.385Z,7.35
2019-05-22T19:38:28.275Z,7.55
2019-05-22T19:40:58.091Z,7.85
2019-05-22T19:43:28.635Z,7.78
2019-05-22T19:45:57.753Z,7.78
2019-05-22T19:48:26.514Z,9.00
2019-05-22T19:50:55.569Z,7.97
2019-05-22T19:53:27.252Z,7.92
2019-05-22T19:55:56.329Z,8.63
2019-05-22T19:58:25.894Z,7.58
2019-05-22T20:00:54.956Z,9.33
2019-05-22T20:03:24.538Z,8.08
2019-05-22T20:05:55.441Z,8.80
2019-05-22T20:08:24.026Z,8.53
2019-05-22T20:10:53.149Z,9.33
2019-05-22T20:13:23.627Z,9.05
2019-05-22T20:15:52.428Z,9.60
2019-05-22T20:18:21.351Z,10.23
2019-05-22T20:20:50.140Z,10.05
2019-05-22T20:23:34.300Z,9.43
2019-05-22T20:25:50.433Z,8.60
2019-05-22T20:28:20.111Z,11.15
2019-05-22T20:30:48.992Z,13.30
2019-05-22T20:33:17.665Z,11.45
2019-05-22T20:35:46.226Z,10.35
2019-05-22T20:38:14.823Z,9.73
2019-05-22T20:40:44.035Z,9.50
2019-05-22T20:43:13.336Z,11.00
2019-05-22T20:45:42.922Z,15.15
2019-05-22T20:48:15.168Z,15.03
2019-05-22T20:50:44.287Z,14.63
2019-05-22T20:53:14.266Z,12.75
2019-05-22T20:55:43.745Z,12.88
2019-05-22T20:58:14.396Z,36.75
2019-05-22T21:00:43.973Z,13.98
2019-05-22T21:03:14.646Z,13.18
2019-05-22T21:05:43.533Z,10.40
2019-05-22T21:08:13.458Z,8.53
2019-05-22T21:10:50.182Z,8.90
2019-05-22T21:13:19.705Z,10.00
2019-05-22T21:15:49.845Z,9.40
2019-05-22T21:18:20.457Z,9.45
2019-05-22T21:20:54.847Z,9.63
2019-05-22T21:23:22.116Z,9.58
2019-05-22T21:25:52.037Z,11.05
2019-05-22T21:28:20.589Z,12.33
2019-05-22T21:30:52.023Z,14.03
2019-05-22T21:33:21.798Z,13.40
2019-05-22T21:35:50.585Z,14.60
2019-05-22T21:38:21.389Z,14.55
2019-05-22T21:40:50.736Z,13.83
2019-05-22T21:43:19.409Z,13.32
2019-05-22T21:45:49.290Z,14.00
2019-05-22T21:48:18.572Z,14.55
2019-05-22T21:50:47.247Z,12.75
2019-05-22T21:53:16.883Z,13.65
2019-05-22T21:55:47.055Z,13.08
2019-05-22T21:58:16.433Z,14.60
2019-05-22T22:00:56.903Z,15.08
2019-05-22T22:03:35.422Z,14.55
2019-05-22T22:06:05.860Z,16.02
2019-05-22T22:08:35.527Z,14.58
2019-05-22T22:11:05.365Z,14.43
2019-05-22T22:13:34.870Z,13.72
2019-05-22T22:16:03.501Z,13.80
2019-05-22T22:18:33.196Z,13.32
2019-05-22T22:21:02.818Z,13.50
2019-05-22T22:23:32.100Z,13.32
2019-05-22T22:26:01.869Z,12.85
2019-05-22T22:28:31.113Z,13.05
2019-05-22T22:31:05.891Z,12.50
2019-05-22T22:33:37.287Z,12.35
2019-05-22T22:36:08.176Z,12.47
2019-05-22T22:38:38.393Z,12.23
2019-05-22T22:41:09.051Z,12.33
2019-05-22T22:43:39.649Z,12.93
2019-05-22T22:46:18.863Z,12.23
2019-05-22T22:48:51.921Z,12.33
2019-05-22T22:51:22.715Z,11.88
2019-05-22T22:53:51.862Z,11.55
2019-05-22T22:56:20.736Z,11.88
2019-05-22T22:58:49.557Z,12.23
2019-05-22T23:01:25.515Z,12.20
2019-05-22T23:03:56.937Z,12.50
2019-05-22T23:06:25.513Z,12.65
2019-05-22T23:08:54.629Z,12.90
2019-05-22T23:11:24.847Z,11.95
2019-05-22T23:13:53.612Z,12.63
2019-05-22T23:16:23.702Z,12.53
2019-05-22T23:19:11.845Z,13.68
2019-05-22T23:21:40.493Z,12.20
2019-05-22T23:24:09.782Z,12.73
2019-05-22T23:26:38.777Z,13.13
2019-05-22T23:29:08.651Z,13.50
2019-05-22T23:31:38.562Z,13.32
2019-05-22T23:34:08.066Z,12.82
2019-05-22T23:36:37.527Z,14.13
2019-05-22T23:39:10.817Z,14.53
2019-05-22T23:44:11.044Z,13.35
2019-05-22T23:46:40.860Z,15.35
2019-05-22T23:49:10.199Z,16.75
2019-05-22T23:51:38.794Z,27.67
2019-05-22T23:54:09.494Z,18.92
2019-05-22T23:56:40.168Z,16.40
2019-05-22T23:59:10.766Z,17.07
